Americus, GA

6:31 AM EDT on September 16, 2014 (GMT -0400)
Souther | Change Station
CLOSE
Current Station
Airport
Location: Americus,
Elevation: 469 ft
Nearby Weather Stations
Active Advisory: Special Statement

Elev 469 ft 32.11 °N, 84.19 °W | Updated 16 minutes ago

Fog
Fog
72 °F
Feels Like 72 °F
N
4
Wind Variable Wind from ENE

Today
High -- | Low -- °F
--% Chance of Precip.
Yesterday
High -- | Low -- °F
Precip. -- in
7:21 AM 7:41 PM
Waning Gibbous, 47% visible
Pressure 30.06 in
Visibility 0.2 miles
Clouds Overcast 300 ft
Dew Point 72 °F
Humidity 100%
Rainfall 0.00 in
Snow Depth Not available.
UV 0 out of 12
Pollen 7.40 out of 12
Air Quality Not available.
Flu Activity Not available.
METAR KACJ 161015Z AUTO 06003KT 1/4SM FG OVC003 22/22 A3006 RMK AO2 LTG DSNT SE AND S

More Conditions Fewer Conditions

Pressure 30.06 in
Visibility 0.2 miles
Clouds Overcast 300 ft
Dew Point 72 °F
Humidity 100%
Rainfall 0.00 in
Snow Depth Not available.
UV 0 out of 12
Pollen 7.40 out of 12
Air Quality Not available.
Flu Activity Not available.
METAR KACJ 161015Z AUTO 06003KT 1/4SM FG OVC003 22/22 A3006 RMK AO2 LTG DSNT SE AND S

More Conditions Fewer Conditions

10-Day Weather Forecast

Almanac

Astronomy

Sep. 16, 2014 Rise Set
Actual Time 7:21 AM EDT 7:41 PM EDT
Civil Twilight 6:56 AM EDT 8:05 PM EDT
Nautical Twilight 6:28 AM EDT 8:34 PM EDT
Astronomical Twilight 5:59 AM EDT 9:03 PM EDT
Moon 12:45 AM EDT 2:49 PM EDT
Length of Visible Light 13h 09m
Length of Day
12h 20m
Tomorrow will be 1m 57s shorter.
Waning Gibbous, 47% of the Moon is Illuminated
Today
Waning Gibbous
Sep 24
New
Oct 1
First Quarter
Oct 8
Full
Oct 15
Last Quarter

Today's Extremes

State Highs State Lows

Community

WunderPhotos

Upload Photos

1,753,720 photos uploaded!

WunderBlogs® & News

Nearby

Snow Depth

Station Depth Elevation
No new snow has been reported.

Earthquake Activity

City Distance Mag. Time & Date
No recent earthquake activity has been reported nearby.
Minimum magnitude displayed is 2.5.

Coastal Water Temperatures

Place Temperature
No Stations Reporting

Nearby Weather Stations